createdAt,value
2022-10-09T00:05:50.557Z,100.00
2022-10-09T00:15:55.070Z,100.00
2022-10-09T00:26:01.084Z,100.00
2022-10-09T00:36:08.598Z,100.00
2022-10-09T00:46:21.519Z,100.00
2022-10-09T00:56:25.181Z,100.00
2022-10-09T01:06:43.288Z,100.00
2022-10-09T01:16:53.604Z,100.00
2022-10-09T01:27:05.640Z,100.00
2022-10-09T01:37:13.490Z,100.00
2022-10-09T01:47:23.906Z,100.00
2022-10-09T01:57:39.907Z,100.00
2022-10-09T02:07:42.135Z,100.00
2022-10-09T02:17:46.954Z,100.00
2022-10-09T02:27:48.908Z,100.00
2022-10-09T02:37:51.278Z,100.00
2022-10-09T02:47:53.659Z,100.00
2022-10-09T02:57:58.227Z,100.00
2022-10-09T03:08:02.833Z,100.00
2022-10-09T03:18:04.998Z,100.00
2022-10-09T03:28:10.392Z,100.00
2022-10-09T03:38:17.086Z,100.00
2022-10-09T03:48:21.582Z,100.00
2022-10-09T03:58:28.388Z,100.00
2022-10-09T04:08:33.115Z,100.00
2022-10-09T04:18:37.303Z,100.00
2022-10-09T04:28:39.783Z,100.00
2022-10-09T04:38:41.958Z,100.00
2022-10-09T04:48:46.840Z,100.00
2022-10-09T04:58:51.447Z,100.00
2022-10-09T05:08:56.562Z,100.00
2022-10-09T05:19:00.132Z,100.00
2022-10-09T05:29:09.549Z,100.00
2022-10-09T05:39:16.246Z,100.00
2022-10-09T05:49:27.580Z,100.00
2022-10-09T05:59:29.595Z,100.00
2022-10-09T06:09:38.838Z,100.00
2022-10-09T06:19:43.831Z,100.00
2022-10-09T06:29:48.566Z,100.00
2022-10-09T06:39:50.657Z,100.00
2022-10-09T06:49:57.449Z,100.00
2022-10-09T06:59:59.802Z,100.00
2022-10-09T07:10:01.855Z,100.00
2022-10-09T07:20:04.077Z,100.00
2022-10-09T07:30:08.522Z,100.00
2022-10-09T07:40:16.996Z,100.00
2022-10-09T07:50:21.242Z,100.00
2022-10-09T08:00:25.776Z,100.00
2022-10-09T08:10:32.468Z,100.00
2022-10-09T08:20:36.533Z,100.00
2022-10-09T08:30:40.229Z,100.00
2022-10-09T08:40:53.833Z,100.00
2022-10-09T08:51:00.356Z,100.00
2022-10-09T09:01:22.196Z,100.00
2022-10-09T09:11:42.596Z,100.00
2022-10-09T09:21:52.399Z,100.00
2022-10-09T09:32:02.375Z,100.00
2022-10-09T09:42:07.353Z,100.00
2022-10-09T09:52:12.127Z,100.00
2022-10-09T10:02:19.504Z,100.00
2022-10-09T10:12:25.008Z,100.00
2022-10-09T10:22:28.307Z,100.00
2022-10-09T10:32:34.601Z,100.00
2022-10-09T10:43:08.166Z,100.00
2022-10-09T10:53:26.636Z,100.00
2022-10-09T11:03:42.900Z,100.00
2022-10-09T11:13:59.442Z,99.73
2022-10-09T11:24:57.027Z,100.00
2022-10-09T11:35:04.205Z,100.00
2022-10-09T11:45:16.539Z,100.00
2022-10-09T11:55:22.861Z,100.00
2022-10-09T12:05:29.913Z,100.00
2022-10-09T12:15:53.844Z,100.00
2022-10-09T12:25:56.551Z,98.30
2022-10-09T12:36:30.352Z,97.73
2022-10-09T12:46:37.233Z,95.07
2022-10-09T12:56:42.476Z,98.66
2022-10-09T13:06:50.074Z,92.86
2022-10-09T13:16:52.204Z,94.69
2022-10-09T13:26:56.586Z,96.18
2022-10-09T13:37:03.207Z,94.67
2022-10-09T13:47:09.978Z,93.10
2022-10-09T13:57:12.372Z,93.67
2022-10-09T14:07:16.874Z,95.47
2022-10-09T14:17:19.151Z,95.68
2022-10-09T14:27:21.355Z,97.02
2022-10-09T14:37:41.011Z,96.32
2022-10-09T14:47:44.044Z,97.85
2022-10-09T14:57:48.685Z,97.69
2022-10-09T15:07:50.937Z,98.45
2022-10-09T15:17:55.432Z,100.00
2022-10-09T15:28:03.781Z,100.00
2022-10-09T15:38:09.222Z,100.00
2022-10-09T15:48:18.955Z,100.00
2022-10-09T15:58:25.688Z,100.00
2022-10-09T16:08:30.101Z,100.00
2022-10-09T16:18:34.715Z,100.00
2022-10-09T16:28:44.446Z,100.00
2022-10-09T16:38:49.073Z,100.00
2022-10-09T16:48:59.330Z,100.00
2022-10-09T16:59:06.212Z,100.00
2022-10-09T17:09:14.521Z,100.00
2022-10-09T17:19:20.071Z,100.00
2022-10-09T17:29:28.482Z,100.00
2022-10-09T17:39:35.361Z,100.00
2022-10-09T17:49:39.667Z,100.00
2022-10-09T17:59:42.061Z,100.00
2022-10-09T18:09:50.597Z,100.00
2022-10-09T18:19:56.234Z,100.00
2022-10-09T18:30:01.228Z,100.00
2022-10-09T18:40:06.088Z,100.00
2022-10-09T18:50:10.457Z,100.00
2022-10-09T19:00:17.878Z,100.00
2022-10-09T19:10:22.634Z,100.00
2022-10-09T19:20:27.947Z,100.00
2022-10-09T19:30:30.045Z,100.00
2022-10-09T19:40:34.778Z,100.00
2022-10-09T19:50:46.475Z,100.00
2022-10-09T20:00:49.156Z,100.00
2022-10-09T20:10:51.134Z,100.00
2022-10-09T20:20:53.196Z,100.00
2022-10-09T20:31:00.478Z,100.00
2022-10-09T20:41:08.928Z,100.00
2022-10-09T20:51:19.345Z,100.00
2022-10-09T21:01:28.439Z,100.00
2022-10-09T21:11:35.454Z,100.00
2022-10-09T21:21:39.307Z,100.00
2022-10-09T21:31:45.555Z,100.00
2022-10-09T21:41:53.968Z,100.00
2022-10-09T21:51:58.287Z,100.00
2022-10-09T22:02:03.073Z,100.00
2022-10-09T22:12:05.168Z,100.00
2022-10-09T22:22:10.719Z,100.00
2022-10-09T22:32:17.946Z,100.00
2022-10-09T22:42:19.937Z,100.00
2022-10-09T22:52:21.923Z,100.00
2022-10-09T23:02:23.996Z,100.00
2022-10-09T23:12:28.163Z,100.00
2022-10-09T23:22:35.343Z,100.00
2022-10-09T23:32:37.374Z,100.00
2022-10-09T23:42:41.865Z,100.00
2022-10-09T23:52:46.935Z,100.00
